Time;durP1;ratioP1;P1;durP2;ratioP2;P2;SDS_P1;SDS_P2;PMS_P1;PMS_P2;Temp;Humidity;BMP_temperature;BMP_pressure;BME280_temperature;BME280_humidity;BME280_pressure;Samples;Min_cycle;Max_cycle;Signal;HPM_P1;HPM_P2
2023/09/23 00:00:12;;;;;;;0.40;0.40;;;;;;;22.45;43.64;99677.13;4516615;28;20888;-63
2023/09/23 00:02:23;;;;;;;0.30;0.30;;;;;;;22.45;43.66;99684.91;4499670;28;20870;-63
2023/09/23 00:04:34;;;;;;;0.43;0.40;;;;;;;22.41;43.16;99684.91;4500422;28;20927;-63
2023/09/23 00:06:44;;;;;;;0.30;0.30;;;;;;;22.45;43.45;99694.38;4516232;28;20138;-63
2023/09/23 00:08:56;;;;;;;0.57;0.35;;;;;;;22.43;43.04;99693.94;4516839;28;20130;-63
2023/09/23 00:11:09;;;;;;;0.40;0.40;;;;;;;22.43;42.86;99701.75;4515612;28;20543;-63
2023/09/23 00:13:21;;;;;;;0.30;0.30;;;;;;;22.41;42.88;99701.31;4500764;28;20029;-63
2023/09/23 00:15:35;;;;;;;1.70;0.50;;;;;;;22.43;42.42;99707.50;4515357;28;20030;-63
2023/09/23 00:17:46;;;;;;;0.50;0.40;;;;;;;22.40;42.26;99706.25;4515398;28;20069;-63
2023/09/23 00:19:57;;;;;;;0.30;0.30;;;;;;;22.43;41.93;99710.38;4516027;28;20060;-63
2023/09/23 00:22:07;;;;;;;0.30;0.30;;;;;;;22.38;41.91;99702.13;4515864;28;20045;-63
2023/09/23 00:24:18;;;;;;;0.30;0.30;;;;;;;22.41;41.97;99707.91;4514349;28;20038;-63
2023/09/23 00:26:28;;;;;;;0.30;0.30;;;;;;;22.40;42.19;99708.31;4516169;28;20038;-63
2023/09/23 00:28:40;;;;;;;0.75;0.40;;;;;;;22.38;42.30;99705.81;4515290;28;20577;-63
2023/09/23 00:30:50;;;;;;;0.30;0.30;;;;;;;22.38;42.39;99717.31;4515028;28;20653;-64
2023/09/23 00:33:01;;;;;;;0.30;0.30;;;;;;;22.36;42.26;99704.59;4515325;28;20044;-63
2023/09/23 00:35:11;;;;;;;0.35;0.30;;;;;;;22.37;42.33;99714.84;4505732;28;20042;-63
2023/09/23 00:37:22;;;;;;;0.60;0.30;;;;;;;22.36;42.31;99713.22;4499326;28;20028;-63
2023/09/23 00:39:41;;;;;;;0.30;0.30;;;;;;;22.36;42.34;99716.91;4513821;28;20088;-63
2023/09/23 00:41:53;;;;;;;0.40;0.30;;;;;;;22.36;42.30;99722.66;4500383;28;20034;-66
2023/09/23 00:44:04;;;;;;;0.65;0.32;;;;;;;22.39;42.24;99721.03;4500206;28;20042;-63
2023/09/23 00:46:16;;;;;;;0.30;0.30;;;;;;;22.36;42.17;99718.97;4514228;28;20041;-62
2023/09/23 00:48:27;;;;;;;0.50;0.43;;;;;;;22.38;41.82;99720.19;4516017;28;20038;-63
2023/09/23 00:50:38;;;;;;;0.60;0.40;;;;;;;22.36;41.94;99721.84;4505079;28;20117;-63
2023/09/23 00:52:53;;;;;;;0.40;0.40;;;;;;;22.36;41.97;99724.72;4516693;28;20041;-63
2023/09/23 00:55:04;;;;;;;0.40;0.40;;;;;;;22.36;41.89;99721.84;4505665;28;20030;-63
2023/09/23 00:57:17;;;;;;;0.60;0.40;;;;;;;22.35;41.90;99721.00;4499003;28;20049;-63
2023/09/23 00:59:29;;;;;;;0.30;0.30;;;;;;;22.28;42.07;99714.38;4514911;28;20425;-63
2023/09/23 01:01:41;;;;;;;0.40;0.40;;;;;;;22.30;41.87;99717.66;4513291;28;20069;-63
2023/09/23 01:03:52;;;;;;;0.30;0.30;;;;;;;22.36;42.15;99725.53;4500722;28;20045;-63
2023/09/23 01:06:08;;;;;;;0.38;0.38;;;;;;;22.31;42.09;99719.34;4497307;28;20099;-63
2023/09/23 01:08:20;;;;;;;0.50;0.40;;;;;;;22.32;42.21;99726.72;4516273;28;20660;-63
2023/09/23 01:10:31;;;;;;;0.47;0.30;;;;;;;22.23;42.18;99711.88;4503513;28;21557;-63
2023/09/23 01:12:42;;;;;;;0.40;0.32;;;;;;;22.29;42.12;99727.53;4514567;28;20025;-63
2023/09/23 01:14:58;;;;;;;0.40;0.40;;;;;;;22.33;42.32;99737.00;4513466;28;20746;-63
2023/09/23 01:17:14;;;;;;;0.30;0.30;;;;;;;22.33;42.46;99728.38;4514634;28;20599;-64
2023/09/23 01:19:26;;;;;;;0.30;0.30;;;;;;;22.32;42.55;99732.47;4500430;28;20826;-63
2023/09/23 01:21:37;;;;;;;0.95;0.30;;;;;;;22.34;42.26;99738.66;4497686;28;20038;-63
2023/09/23 01:23:47;;;;;;;0.57;0.50;;;;;;;22.30;42.16;99738.63;4500412;28;20418;-63
2023/09/23 01:25:58;;;;;;;0.30;0.30;;;;;;;22.29;42.88;99739.88;4501752;28;20062;-63
2023/09/23 01:28:11;;;;;;;0.40;0.40;;;;;;;22.18;42.64;99722.50;4503113;28;20033;-63
2023/09/23 01:30:21;;;;;;;0.40;0.40;;;;;;;22.29;42.54;99741.91;4499874;28;20045;-63
2023/09/23 01:32:45;;;;;;;0.88;0.52;;;;;;;22.33;42.73;99751.38;4515024;28;20052;-63
2023/09/23 01:34:56;;;;;;;0.30;0.30;;;;;;;22.30;42.83;99746.41;4514309;28;20033;-63
2023/09/23 01:37:06;;;;;;;0.65;0.40;;;;;;;22.32;42.74;99749.72;4516054;28;20026;-63
2023/09/23 01:39:17;;;;;;;0.50;0.40;;;;;;;22.28;43.07;99760.38;4514262;28;20285;-63
2023/09/23 01:41:27;;;;;;;0.40;0.40;;;;;;;22.29;42.59;99756.28;4502140;28;20041;-63
2023/09/23 01:43:37;;;;;;;0.35;0.35;;;;;;;22.30;42.82;99760.78;4514502;28;20124;-63
2023/09/23 01:45:48;;;;;;;0.55;0.40;;;;;;;22.29;43.04;99762.84;4511101;28;20044;-63
2023/09/23 01:47:59;;;;;;;0.40;0.40;;;;;;;22.32;43.12;99772.72;4514345;28;20029;-63
2023/09/23 01:50:10;;;;;;;0.40;0.40;;;;;;;22.31;43.22;99773.97;4483087;28;20476;-62
2023/09/23 01:52:21;;;;;;;0.50;0.40;;;;;;;22.26;42.87;99769.41;4513147;28;20030;-63
2023/09/23 01:54:32;;;;;;;0.40;0.40;;;;;;;22.30;42.80;99786.66;4506840;28;20038;-63
2023/09/23 01:56:44;;;;;;;0.47;0.43;;;;;;;22.27;42.83;99781.72;4507689;28;20042;-63
2023/09/23 01:58:55;;;;;;;0.47;0.47;;;;;;;22.29;43.31;99776.41;4496232;28;20026;-63
2023/09/23 02:01:06;;;;;;;0.75;0.52;;;;;;;22.29;42.99;99779.28;4505223;28;20116;-63
2023/09/23 02:03:16;;;;;;;0.30;0.30;;;;;;;22.28;42.93;99784.19;4513612;28;20116;-63
2023/09/23 02:05:27;;;;;;;0.30;0.30;;;;;;;22.28;43.51;99794.88;4502706;28;20030;-63
2023/09/23 02:07:39;;;;;;;0.68;0.40;;;;;;;22.25;43.31;99789.94;4515348;28;20053;-63
2023/09/23 02:09:50;;;;;;;0.40;0.40;;;;;;;22.29;42.99;99808.03;4483082;28;20158;-63
2023/09/23 02:12:01;;;;;;;0.50;0.50;;;;;;;22.29;43.33;99802.28;4505474;28;20137;-63
2023/09/23 02:14:11;;;;;;;0.77;0.50;;;;;;;22.30;43.17;99812.53;4507015;28;20830;-63
2023/09/23 02:16:22;;;;;;;0.52;0.50;;;;;;;22.28;43.13;99812.13;4479655;28;20043;-63
2023/09/23 02:18:37;;;;;;;0.90;0.60;;;;;;;22.28;43.05;99818.69;4514188;28;20038;-63
2023/09/23 02:20:47;;;;;;;0.38;0.38;;;;;;;22.30;43.22;99824.03;4496488;28;21259;-63
2023/09/23 02:22:57;;;;;;;0.40;0.40;;;;;;;22.25;43.15;99815.81;4513407;28;20037;-63
2023/09/23 02:25:11;;;;;;;0.40;0.40;;;;;;;22.28;43.05;99826.50;4506115;28;20066;-63
2023/09/23 02:27:22;;;;;;;0.60;0.60;;;;;;;22.28;43.54;99823.63;4513828;28;20026;-63
2023/09/23 02:29:33;;;;;;;0.60;0.50;;;;;;;22.29;43.05;99831.84;4513614;28;20041;-63
2023/09/23 02:31:47;;;;;;;0.50;0.50;;;;;;;22.28;43.64;99830.19;4512863;28;20042;-63
2023/09/23 02:33:57;;;;;;;1.25;0.60;;;;;;;22.21;43.33;99821.53;4514176;28;20129;-62
2023/09/23 02:36:08;;;;;;;0.95;0.60;;;;;;;22.28;43.32;99838.00;4513318;28;20040;-63
2023/09/23 02:38:19;;;;;;;0.90;0.50;;;;;;;22.25;43.41;99830.19;4498173;28;20088;-62
2023/09/23 02:40:29;;;;;;;1.00;0.38;;;;;;;22.27;43.14;99845.78;4513376;28;20026;-62
2023/09/23 02:42:42;;;;;;;0.40;0.40;;;;;;;22.23;43.29;99841.25;4514434;28;20380;-62
2023/09/23 02:44:52;;;;;;;0.43;0.40;;;;;;;22.20;43.52;99839.97;4504948;28;20022;-62
2023/09/23 02:47:04;;;;;;;0.50;0.50;;;;;;;22.20;42.98;99837.94;4499326;28;20495;-62
2023/09/23 02:49:15;;;;;;;0.50;0.50;;;;;;;22.19;43.08;99841.19;4497192;28;20177;-63
2023/09/23 02:51:27;;;;;;;0.50;0.50;;;;;;;22.26;42.86;99854.81;4511933;28;20053;-63
2023/09/23 02:53:38;;;;;;;0.50;0.40;;;;;;;22.25;43.34;99858.94;4513168;28;20043;-63
2023/09/23 02:55:52;;;;;;;0.70;0.52;;;;;;;22.26;43.05;99860.56;4506538;28;20034;-62
2023/09/23 02:58:02;;;;;;;0.75;0.60;;;;;;;22.23;42.81;99858.50;4513707;28;20057;-63
2023/09/23 03:00:29;;;;;;;0.50;0.50;;;;;;;22.21;42.75;99859.69;4499035;28;20894;-63
2023/09/23 03:02:40;;;;;;;0.55;0.55;;;;;;;22.16;42.77;99845.72;4512659;28;20601;-63
2023/09/23 03:04:58;;;;;;;0.60;0.40;;;;;;;22.24;42.76;99863.84;4505406;28;20063;-62
2023/09/23 03:07:10;;;;;;;0.60;0.50;;;;;;;22.21;42.61;99865.44;4514077;28;20038;-63
2023/09/23 03:09:25;;;;;;;0.73;0.60;;;;;;;22.23;42.65;99874.50;4512121;28;20604;-62
2023/09/23 03:11:42;;;;;;;0.70;0.50;;;;;;;22.25;43.01;99870.44;4513385;28;20029;-63
2023/09/23 03:13:52;;;;;;;0.40;0.40;;;;;;;22.16;42.91;99857.19;4513901;28;20038;-63
2023/09/23 03:16:10;;;;;;;0.50;0.50;;;;;;;22.23;42.90;99875.72;4514726;28;20022;-63
2023/09/23 03:21:07;;;;;;;0.40;0.40;;;;;;;22.23;42.86;99874.50;4471573;28;20058;-63
2023/09/23 03:23:18;;;;;;;0.50;0.50;;;;;;;22.20;42.56;99868.72;4509519;28;20036;-62
2023/09/23 03:25:30;;;;;;;0.40;0.40;;;;;;;22.20;42.59;99875.28;4507708;28;20024;-63
2023/09/23 03:27:41;;;;;;;0.40;0.40;;;;;;;22.22;42.57;99886.41;4517848;28;20040;-63
2023/09/23 03:29:52;;;;;;;0.40;0.40;;;;;;;22.21;42.88;99888.44;4502515;28;20034;-63
2023/09/23 03:32:03;;;;;;;0.60;0.50;;;;;;;22.22;42.42;99889.28;4515530;28;20045;-63
2023/09/23 03:34:14;;;;;;;0.95;0.40;;;;;;;22.18;42.68;99889.22;4516264;28;20478;-63
2023/09/23 03:36:25;;;;;;;0.60;0.40;;;;;;;22.20;42.43;99897.47;4500605;28;20026;-63
2023/09/23 03:38:37;;;;;;;0.70;0.50;;;;;;;22.17;42.59;99899.09;4518066;28;20038;-63
2023/09/23 03:40:52;;;;;;;0.43;0.38;;;;;;;22.21;42.50;99896.25;4517249;28;20049;-62
2023/09/23 03:43:05;;;;;;;0.50;0.50;;;;;;;22.17;42.59;99899.09;4507781;28;20033;-64
2023/09/23 03:45:17;;;;;;;0.50;0.50;;;;;;;22.09;42.51;99897.34;4502277;28;20030;-63
2023/09/23 03:47:28;;;;;;;0.43;0.43;;;;;;;22.20;42.21;99914.69;4515519;28;20933;-63
2023/09/23 03:49:38;;;;;;;0.47;0.47;;;;;;;22.21;42.35;99922.94;4497971;28;20057;-62
2023/09/23 03:51:50;;;;;;;0.40;0.40;;;;;;;22.14;41.96;99910.53;4516302;28;20116;-63
2023/09/23 03:54:01;;;;;;;0.73;0.40;;;;;;;22.15;42.05;99915.09;4507142;28;20033;-63
2023/09/23 03:56:12;;;;;;;0.70;0.50;;;;;;;22.20;41.88;99926.19;4499909;28;20034;-62
2023/09/23 03:58:22;;;;;;;0.43;0.43;;;;;;;22.17;42.12;99921.25;4515767;28;20038;-63
2023/09/23 04:00:34;;;;;;;0.60;0.50;;;;;;;22.21;42.02;99939.38;4502888;28;20026;-62
2023/09/23 04:02:47;;;;;;;0.35;0.35;;;;;;;22.18;42.19;99940.97;4498432;28;20648;-64
2023/09/23 04:04:57;;;;;;;0.73;0.38;;;;;;;22.16;41.98;99937.69;4507168;28;20026;-63
2023/09/23 04:07:08;;;;;;;0.40;0.40;;;;;;;22.17;42.02;99939.31;4483536;28;20518;-62
2023/09/23 04:09:18;;;;;;;0.30;0.30;;;;;;;22.12;42.10;99927.34;4516614;28;20034;-62
2023/09/23 04:11:29;;;;;;;0.32;0.32;;;;;;;22.13;41.85;99926.97;4507538;28;21102;-63
2023/09/23 04:13:39;;;;;;;0.40;0.40;;;;;;;22.17;41.92;99933.56;4515780;28;20083;-63
2023/09/23 04:15:50;;;;;;;0.30;0.30;;;;;;;22.18;41.74;99940.97;4515583;28;20397;-62
2023/09/23 04:18:03;;;;;;;0.50;0.50;;;;;;;22.16;42.05;99939.72;4515322;28;20065;-63
2023/09/23 04:20:17;;;;;;;0.40;0.40;;;;;;;22.18;42.11;99946.72;4515084;28;20046;-63
2023/09/23 04:22:27;;;;;;;0.50;0.50;;;;;;;22.15;42.26;99947.50;4506683;28;20104;-63
2023/09/23 04:24:38;;;;;;;0.63;0.30;;;;;;;22.15;41.94;99953.25;4517090;28;20061;-63
2023/09/23 04:26:49;;;;;;;0.47;0.40;;;;;;;22.15;42.19;99958.19;4515278;28;20021;-63
2023/09/23 04:28:59;;;;;;;0.43;0.43;;;;;;;22.14;41.69;99962.28;4517197;28;20038;-62
2023/09/23 04:31:10;;;;;;;0.60;0.50;;;;;;;22.11;42.34;99955.28;4516085;28;20045;-62
2023/09/23 04:33:23;;;;;;;0.60;0.50;;;;;;;22.17;41.83;99970.09;4508099;28;20060;-62
2023/09/23 04:35:34;;;;;;;0.50;0.40;;;;;;;22.15;41.97;99964.75;4515577;28;20026;-62
2023/09/23 04:37:45;;;;;;;0.60;0.60;;;;;;;22.13;41.99;99972.97;4507041;28;20131;-63
2023/09/23 04:39:57;;;;;;;0.55;0.50;;;;;;;22.13;41.64;99967.22;4515973;28;20041;-63
2023/09/23 04:42:07;;;;;;;0.63;0.50;;;;;;;22.15;42.17;99976.25;4500711;28;20026;-62
2023/09/23 04:44:18;;;;;;;0.75;0.47;;;;;;;22.16;41.89;99977.94;4515961;28;20034;-63
2023/09/23 04:46:32;;;;;;;0.50;0.50;;;;;;;22.14;42.23;99988.97;4515477;28;20032;-63
2023/09/23 04:48:43;;;;;;;0.57;0.50;;;;;;;22.15;42.37;99990.63;4514687;28;20068;-63
2023/09/23 04:50:56;;;;;;;0.57;0.57;;;;;;;22.09;41.98;99977.81;4515390;28;20124;-62
2023/09/23 04:53:07;;;;;;;1.25;0.60;;;;;;;22.12;42.45;99994.28;4515386;28;20114;-63
2023/09/23 04:55:19;;;;;;;0.70;0.50;;;;;;;22.14;42.22;99999.63;4514034;28;20046;-62
2023/09/23 04:57:29;;;;;;;0.55;0.50;;;;;;;22.11;42.63;100001.28;4514232;28;20063;-62
2023/09/23 04:59:40;;;;;;;0.52;0.40;;;;;;;22.09;42.39;99997.94;4515747;28;20026;-62
2023/09/23 05:01:50;;;;;;;0.47;0.47;;;;;;;22.15;42.50;100010.75;4501224;28;20035;-62
2023/09/23 05:04:03;;;;;;;0.50;0.50;;;;;;;22.10;42.54;100001.66;4514574;28;20030;-62
2023/09/23 05:06:13;;;;;;;0.47;0.47;;;;;;;22.13;42.54;100013.22;4507697;28;20805;-62
2023/09/23 05:08:24;;;;;;;0.65;0.50;;;;;;;22.15;42.70;100012.81;4515083;28;20029;-64
2023/09/23 05:10:35;;;;;;;0.93;0.70;;;;;;;22.10;42.85;100013.16;4514253;28;20070;-63
2023/09/23 05:12:46;;;;;;;0.70;0.50;;;;;;;22.09;43.09;100012.31;4515305;28;20117;-64
2023/09/23 05:14:57;;;;;;;0.80;0.70;;;;;;;22.06;43.10;100013.09;4503378;28;20040;-64
2023/09/23 05:17:10;;;;;;;1.17;0.60;;;;;;;22.12;43.35;100028.78;4515474;28;20621;-64
2023/09/23 05:19:20;;;;;;;0.70;0.60;;;;;;;22.09;43.11;100023.81;4500238;28;20786;-64
2023/09/23 05:21:30;;;;;;;0.60;0.60;;;;;;;22.13;43.21;100026.75;4515516;28;20025;-64
2023/09/23 05:23:41;;;;;;;0.70;0.50;;;;;;;22.12;43.02;100034.53;4500467;28;20042;-64
2023/09/23 05:25:57;;;;;;;0.90;0.63;;;;;;;22.13;43.21;100046.88;4514921;28;20088;-64
2023/09/23 05:28:10;;;;;;;0.80;0.60;;;;;;;22.09;42.94;100043.94;4506272;28;20030;-64
2023/09/23 05:30:21;;;;;;;0.90;0.80;;;;;;;22.10;43.01;100054.19;4513240;28;20081;-63
2023/09/23 05:32:32;;;;;;;0.65;0.65;;;;;;;22.00;43.01;100034.78;4514107;28;20033;-64
2023/09/23 05:34:43;;;;;;;0.70;0.70;;;;;;;22.14;43.15;100057.13;4514165;28;20041;-64
2023/09/23 05:36:53;;;;;;;0.80;0.70;;;;;;;22.12;43.12;100056.69;4506337;28;20862;-64
2023/09/23 05:39:05;;;;;;;0.60;0.60;;;;;;;22.07;43.03;100048.44;4514778;28;20038;-64
2023/09/23 05:41:15;;;;;;;0.93;0.60;;;;;;;22.05;43.25;100045.13;4513781;28;20121;-64
2023/09/23 05:43:26;;;;;;;0.80;0.70;;;;;;;22.02;43.09;100055.31;4514541;28;20033;-64
2023/09/23 05:45:37;;;;;;;0.77;0.60;;;;;;;22.04;43.16;100057.84;4480976;28;20613;-64
2023/09/23 05:47:47;;;;;;;0.82;0.80;;;;;;;22.10;43.32;100071.44;4513030;28;20049;-64
2023/09/23 05:49:58;;;;;;;1.45;0.70;;;;;;;22.08;43.08;100073.06;4514582;28;20029;-64
2023/09/23 05:52:10;;;;;;;0.70;0.70;;;;;;;22.10;43.10;100080.06;4514080;28;21315;-64
2023/09/23 05:54:22;;;;;;;0.82;0.80;;;;;;;22.12;43.15;100086.25;4513485;28;20061;-64
2023/09/23 05:56:33;;;;;;;1.60;0.90;;;;;;;22.11;43.21;100087.50;4505972;28;20046;-64
2023/09/23 05:58:43;;;;;;;1.38;0.95;;;;;;;22.11;43.27;100090.38;4515259;28;20041;-63
2023/09/23 06:00:54;;;;;;;1.27;0.90;;;;;;;22.13;43.30;100092.84;4496965;28;20024;-64
2023/09/23 06:03:04;;;;;;;1.55;0.93;;;;;;;22.13;43.21;100099.44;4513864;28;20092;-64
2023/09/23 06:05:15;;;;;;;1.77;1.08;;;;;;;22.12;43.11;100094.06;4512678;28;20037;-64
2023/09/23 06:07:26;;;;;;;1.10;1.00;;;;;;;22.10;43.43;100093.63;4512677;28;20482;-64
2023/09/23 06:09:37;;;;;;;0.90;0.90;;;;;;;22.12;43.25;100097.75;4481971;28;20045;-64
2023/09/23 06:11:48;;;;;;;1.85;0.90;;;;;;;22.14;43.26;100106.00;4513035;28;20495;-64
2023/09/23 06:13:59;;;;;;;1.40;1.17;;;;;;;22.14;43.76;100108.88;4482155;28;20053;-64
2023/09/23 06:16:09;;;;;;;1.20;1.10;;;;;;;22.12;43.57;100109.25;4513746;28;20030;-65
2023/09/23 06:18:20;;;;;;;1.33;0.90;;;;;;;22.16;43.37;100120.81;4514620;28;20089;-64
2023/09/23 06:20:30;;;;;;;0.90;0.90;;;;;;;22.11;43.04;100116.25;4498471;28;20569;-64
2023/09/23 06:22:41;;;;;;;1.23;1.08;;;;;;;22.15;43.46;100122.03;4513668;28;20119;-64
2023/09/23 06:24:52;;;;;;;1.40;1.10;;;;;;;22.15;43.81;100130.66;4513829;28;20057;-64
2023/09/23 06:27:02;;;;;;;1.42;1.02;;;;;;;22.14;43.31;100131.88;4498712;28;20625;-64
2023/09/23 06:29:14;;;;;;;1.10;1.00;;;;;;;22.15;43.76;100137.22;4514093;28;20848;-64
2023/09/23 06:31:24;;;;;;;1.10;1.00;;;;;;;22.12;43.28;100138.00;4499468;28;20037;-64
2023/09/23 06:33:35;;;;;;;1.10;1.00;;;;;;;22.16;43.76;100150.41;4511971;28;20038;-64
2023/09/23 06:35:46;;;;;;;2.03;1.05;;;;;;;22.16;43.29;100149.56;4512770;28;20088;-64
2023/09/23 06:37:56;;;;;;;1.40;1.08;;;;;;;22.13;43.37;100139.69;4512878;28;20026;-64
2023/09/23 06:40:07;;;;;;;1.25;1.15;;;;;;;22.13;43.31;100151.19;4513833;28;20546;-64
2023/09/23 06:42:17;;;;;;;1.20;1.10;;;;;;;22.16;43.60;100161.06;4510110;28;20046;-65
2023/09/23 06:44:28;;;;;;;1.27;1.13;;;;;;;22.16;43.86;100170.53;4503334;28;20482;-64
2023/09/23 06:46:38;;;;;;;1.10;1.00;;;;;;;22.12;43.82;100163.88;4513366;28;21130;-64
2023/09/23 06:48:49;;;;;;;1.20;1.02;;;;;;;22.18;48.65;100176.69;4511305;28;20065;-65
2023/09/23 06:51:01;;;;;;;1.00;0.90;;;;;;;22.14;44.10;100170.06;4503433;28;20521;-64
2023/09/23 06:53:12;;;;;;;1.42;0.88;;;;;;;22.15;44.16;100194.72;4512842;28;20036;-64
2023/09/23 06:55:22;;;;;;;0.80;0.80;;;;;;;22.16;43.83;100199.25;4493702;28;20080;-64
2023/09/23 06:57:35;;;;;;;0.68;0.60;;;;;;;22.19;52.52;100210.00;4494020;28;20030;-64
2023/09/23 06:59:45;;;;;;;0.28;0.28;;;;;;;22.28;54.42;100195.31;4493356;28;20615;-64
2023/09/23 07:01:56;;;;;;;0.20;0.20;;;;;;;22.39;54.17;100192.59;4499098;28;20131;-64
2023/09/23 07:04:06;;;;;;;0.30;0.30;;;;;;;22.46;53.96;100196.41;4512715;28;20057;-64
2023/09/23 07:06:16;;;;;;;0.50;0.22;;;;;;;22.44;53.88;100195.97;4495538;28;20054;-64
2023/09/23 07:08:27;;;;;;;1.10;0.30;;;;;;;22.49;53.87;100191.91;4512091;28;20041;-64
2023/09/23 07:10:40;;;;;;;0.98;0.40;;;;;;;22.46;53.95;100186.94;4507056;28;20050;-64
2023/09/23 07:12:50;;;;;;;0.70;0.30;;;;;;;22.49;54.47;100198.50;4483385;28;20097;-64
2023/09/23 07:15:01;;;;;;;0.30;0.30;;;;;;;22.52;53.99;100199.78;4512269;28;20068;-64
2023/09/23 07:17:11;;;;;;;0.73;0.32;;;;;;;22.55;54.49;100210.53;4512029;28;20034;-64
2023/09/23 07:19:22;;;;;;;0.30;0.30;;;;;;;22.57;54.10;100205.19;4510857;28;20112;-64
2023/09/23 07:21:33;;;;;;;0.60;0.22;;;;;;;22.53;54.21;100205.19;4493536;28;20046;-63
2023/09/23 07:23:43;;;;;;;0.20;0.20;;;;;;;22.52;54.15;100199.78;4510844;28;20092;-64
2023/09/23 07:25:53;;;;;;;0.30;0.30;;;;;;;22.60;54.28;100213.03;4512149;28;20030;-64
2023/09/23 07:28:09;;;;;;;0.40;0.40;;;;;;;22.60;54.28;100215.94;4511510;28;20044;-64
2023/09/23 07:30:20;;;;;;;0.50;0.30;;;;;;;22.56;54.04;100209.31;4511101;28;20026;-64
2023/09/23 07:32:30;;;;;;;0.30;0.30;;;;;;;22.61;54.22;100217.59;4512754;28;20065;-64
2023/09/23 07:34:40;;;;;;;0.63;0.63;;;;;;;22.62;54.14;100230.75;4511600;28;20503;-64
2023/09/23 07:36:51;;;;;;;1.10;0.28;;;;;;;22.58;54.07;100219.19;4512122;28;20038;-67
2023/09/23 07:39:02;;;;;;;1.40;0.40;;;;;;;22.60;54.30;100221.69;4510626;28;20467;-64
2023/09/23 07:41:12;;;;;;;0.20;0.20;;;;;;;22.61;54.49;100229.09;4504332;28;20034;-64
2023/09/23 07:43:22;;;;;;;0.22;0.22;;;;;;;22.61;54.06;100229.09;4512411;28;20116;-64
2023/09/23 07:45:34;;;;;;;0.38;0.30;;;;;;;22.59;54.34;100223.75;4512086;28;20058;-63
2023/09/23 07:47:45;;;;;;;0.40;0.30;;;;;;;22.58;54.47;100229.88;4503968;28;20092;-64
2023/09/23 07:49:55;;;;;;;0.95;0.30;;;;;;;22.46;54.68;100207.06;4512214;28;20120;-65
2023/09/23 07:52:06;;;;;;;0.60;0.40;;;;;;;22.57;54.54;100239.72;4512761;28;20053;-64
2023/09/23 07:54:16;;;;;;;0.50;0.40;;;;;;;22.60;54.41;100236.91;4495871;28;20039;-64
2023/09/23 07:56:27;;;;;;;0.73;0.40;;;;;;;22.61;54.75;100246.38;4511602;28;20512;-64
2023/09/23 07:58:37;;;;;;;0.80;0.40;;;;;;;22.60;54.12;100253.31;4498763;28;20096;-64
2023/09/23 08:00:48;;;;;;;0.60;0.57;;;;;;;22.61;54.63;100257.88;4497737;28;20065;-64
2023/09/23 08:02:58;;;;;;;0.68;0.50;;;;;;;22.60;54.54;100257.03;4514735;28;20503;-64
2023/09/23 08:05:09;;;;;;;0.80;0.60;;;;;;;22.60;54.49;100268.53;4514403;28;20026;-64
2023/09/23 08:07:19;;;;;;;1.25;0.70;;;;;;;22.61;54.53;100266.50;4483092;28;20149;-64
2023/09/23 08:09:30;;;;;;;0.80;0.63;;;;;;;22.62;54.82;100271.88;4489927;28;20030;-64
2023/09/23 08:11:40;;;;;;;1.98;0.80;;;;;;;22.64;54.65;100274.34;4515158;28;20052;-64
2023/09/23 08:13:51;;;;;;;1.13;0.88;;;;;;;22.62;54.67;100279.66;4501023;28;20037;-64
2023/09/23 08:16:03;;;;;;;2.00;0.90;;;;;;;22.63;54.37;100292.84;4515411;28;20046;-64
2023/09/23 08:18:13;;;;;;;1.80;0.80;;;;;;;22.59;54.98;100284.16;4514521;28;20033;-64
2023/09/23 08:20:24;;;;;;;2.40;0.85;;;;;;;22.56;55.20;100273.44;4500298;28;20147;-64
2023/09/23 08:22:36;;;;;;;1.40;0.80;;;;;;;22.61;55.20;100292.41;4514323;28;20857;-63
2023/09/23 08:24:47;;;;;;;1.58;0.95;;;;;;;22.60;55.20;100302.22;4514790;28;20121;-63
2023/09/23 08:26:58;;;;;;;1.50;0.90;;;;;;;22.62;55.23;100305.56;4497170;28;20373;-63
2023/09/23 08:29:09;;;;;;;1.67;0.70;;;;;;;22.61;54.89;100312.53;4514524;28;20049;-62
2023/09/23 08:31:21;;;;;;;1.77;0.88;;;;;;;22.62;55.20;100305.56;4514049;28;20053;-63
2023/09/23 08:33:32;;;;;;;1.70;1.00;;;;;;;22.62;54.99;100311.31;4514290;28;20034;-62
2023/09/23 08:35:47;;;;;;;2.33;0.88;;;;;;;22.65;55.14;100314.25;4515397;28;20080;-62
2023/09/23 08:37:57;;;;;;;1.40;0.70;;;;;;;22.63;55.18;100318.72;4513952;28;20060;-63
2023/09/23 08:40:11;;;;;;;1.17;0.80;;;;;;;22.58;55.46;100311.25;4513759;28;20045;-62
2023/09/23 08:42:26;;;;;;;1.85;0.60;;;;;;;22.63;55.40;100330.25;4514316;28;20038;-62
2023/09/23 08:44:38;;;;;;;1.25;0.70;;;;;;;22.62;55.36;100317.91;4513926;28;20103;-62
2023/09/23 08:46:50;;;;;;;1.00;0.63;;;;;;;22.59;55.21;100317.84;4512449;28;20034;-62
2023/09/23 08:49:00;;;;;;;2.15;0.60;;;;;;;22.59;55.26;100320.72;4513704;28;20134;-63
2023/09/23 08:51:14;;;;;;;0.95;0.55;;;;;;;22.61;55.21;100321.97;4513593;28;20117;-62
2023/09/23 08:53:27;;;;;;;2.67;0.80;;;;;;;22.61;55.44;100327.72;4513759;28;20216;-63
2023/09/23 08:55:38;;;;;;;1.17;0.63;;;;;;;22.61;55.26;100327.72;4515050;28;20177;-62
2023/09/23 08:57:48;;;;;;;1.52;0.47;;;;;;;22.59;55.30;100323.59;4514845;28;20121;-63
2023/09/23 08:59:59;;;;;;;1.13;0.50;;;;;;;22.53;55.52;100320.22;4514513;28;20045;-63
2023/09/23 09:02:12;;;;;;;1.65;0.50;;;;;;;22.62;55.54;100337.19;4505698;28;20034;-64
2023/09/23 09:04:24;;;;;;;0.82;0.50;;;;;;;22.58;55.34;100327.69;4513317;28;20108;-64
2023/09/23 09:06:34;;;;;;;0.60;0.50;;;;;;;22.59;55.27;100335.09;4514622;28;20022;-64
2023/09/23 09:08:45;;;;;;;0.68;0.60;;;;;;;22.59;55.58;100335.09;4515317;28;20042;-64
2023/09/23 09:10:58;;;;;;;1.33;0.40;;;;;;;22.61;55.63;100347.88;4498992;28;20133;-64
2023/09/23 09:13:09;;;;;;;0.50;0.40;;;;;;;22.58;55.55;100342.06;4513082;28;20080;-64
2023/09/23 09:15:21;;;;;;;0.65;0.30;;;;;;;22.62;55.13;100340.06;4513654;28;20473;-64
2023/09/23 09:17:33;;;;;;;1.58;0.43;;;;;;;22.64;55.16;100349.16;4502582;28;20038;-64
2023/09/23 09:19:43;;;;;;;0.50;0.40;;;;;;;22.64;55.25;100349.16;4499754;28;20043;-65
2023/09/23 09:21:57;;;;;;;1.55;0.40;;;;;;;22.59;55.25;100343.72;4513593;28;20054;-64
2023/09/23 09:24:09;;;;;;;0.43;0.40;;;;;;;22.65;55.45;100356.56;4503410;28;20033;-64
2023/09/23 09:26:21;;;;;;;0.95;0.28;;;;;;;22.60;55.36;100351.13;4494130;28;20038;-64
2023/09/23 09:28:32;;;;;;;0.70;0.38;;;;;;;22.66;55.24;100366.88;4513672;28;21237;-65
2023/09/23 09:30:44;;;;;;;0.35;0.30;;;;;;;22.60;55.09;100354.00;4512402;28;20136;-63
2023/09/23 09:32:59;;;;;;;1.00;0.40;;;;;;;22.64;55.23;100360.66;4514268;28;20033;-64
2023/09/23 09:35:17;;;;;;;0.30;0.30;;;;;;;22.58;55.32;100350.72;4513606;28;20172;-64
2023/09/23 09:37:30;;;;;;;1.10;0.40;;;;;;;22.64;55.30;100367.25;4497951;28;20727;-64
2023/09/23 09:39:51;;;;;;;0.73;0.40;;;;;;;22.64;55.56;100375.03;4495437;28;20041;-65
2023/09/23 09:42:04;;;;;;;1.15;0.40;;;;;;;22.61;55.61;100367.19;4504674;28;20105;-64
2023/09/23 09:44:15;;;;;;;0.20;0.20;;;;;;;22.60;55.64;100371.25;4506685;28;20038;-64
2023/09/23 09:46:28;;;;;;;0.47;0.45;;;;;;;22.62;55.51;100377.47;4495035;28;20033;-65
2023/09/23 09:48:41;;;;;;;2.15;0.40;;;;;;;22.61;55.44;100370.88;4495586;28;20038;-63
2023/09/23 09:50:53;;;;;;;0.77;0.38;;;;;;;22.51;55.66;100362.88;4512560;28;20026;-62
2023/09/23 09:53:05;;;;;;;1.08;0.50;;;;;;;22.58;55.48;100379.47;4513261;28;20069;-62
2023/09/23 09:55:19;;;;;;;0.40;0.40;;;;;;;22.61;55.82;100378.69;4481926;28;20730;-63
2023/09/23 09:57:29;;;;;;;0.40;0.40;;;;;;;22.60;55.88;100379.88;4512526;28;20022;-63
2023/09/23 09:59:41;;;;;;;0.57;0.35;;;;;;;22.58;55.69;100394.66;4513566;28;20046;-62
2023/09/23 10:01:55;;;;;;;1.23;0.38;;;;;;;22.59;55.39;100381.13;4513021;28;20076;-62
2023/09/23 10:04:10;;;;;;;1.48;0.50;;;;;;;22.58;55.37;100390.97;4505357;28;20049;-62
2023/09/23 10:06:22;;;;;;;0.80;0.40;;;;;;;22.57;55.53;100381.50;4504310;28;20022;-64
2023/09/23 10:08:38;;;;;;;0.95;0.40;;;;;;;22.51;55.87;100374.41;4511699;28;20502;-63
2023/09/23 10:10:49;;;;;;;1.45;0.73;;;;;;;22.61;55.77;100390.19;4514080;28;20052;-63
2023/09/23 10:13:07;;;;;;;0.70;0.35;;;;;;;22.55;56.10;100383.94;4495528;28;20024;-63
2023/09/23 10:15:26;;;;;;;0.65;0.50;;;;;;;22.61;55.64;100398.84;4513603;28;20049;-63
2023/09/23 10:17:41;;;;;;;1.90;0.60;;;;;;;22.57;55.69;100395.06;4512637;28;20066;-63